ZGSZ METAR and TAF | Updated Today

ZGSZ METAR

Shenzhen Bao'an International Airport

Observation time: 15 min. ago

ZGSZ 291200Z 16006MPS CAVOK 28/25 Q1004 NOSIG

Need help? Read our tutorial on how to read METARs or read the parsed version below.

Shenzhen Bao'an International Airport (ZGSZ) METAR

  • Weather conditions on Sun, 29 May 2022 12:00:00 +0000 (15 min. ago):
  • Present conditions: Dry
  • Clouds: Clear skies
  • Visibility: Greater than 10 km
  • Wind: 160 degrees at 6 knots
  • Temperature: 28 celsius
  • Dew point: 25 celsius
  • Pressure: 1004 millibars
  • Remarks: None


Useful to know...

ZGSZ TAF

Shenzhen Bao'an International Airport

TAF ZGSZ 290903Z 2912/3012 17004MPS 8000 FEW040 TX32/3006Z TN27/2922Z
Observation time: 3:12 hr. ago
Need help? Read our tutorial on how to read TAFs or read the parsed version below.

Parsed version of TAF for Shenzhen Bao'an International Airport (ZGSZ)

  • From 29 May at 12:00 UTC, to day 30 of the month at 12:00 UTC
  • Clouds: A few at 1219 meters
  • Visibility: 8000 meters
  • Wind: 170 degrees at 4